Time;durP1;ratioP1;P1;durP2;ratioP2;P2;SDS_P1;SDS_P2;PMS_P1;PMS_P2;Temp;Humidity;BMP_temperature;BMP_pressure;BME280_temperature;BME280_humidity;BME280_pressure;Samples;Min_cycle;Max_cycle;Signal;HPM_P1;HPM_P2
2021/05/09 00:01:00;;;;;;;2.90;2.10;;;;;;;12.29;68.36;95842.88;6161104;23;20468;-88
2021/05/09 00:03:27;;;;;;;3.13;1.97;;;;;;;12.28;68.74;95836.03;6160854;23;20460;-88
2021/05/09 00:05:54;;;;;;;4.30;2.20;;;;;;;12.25;69.27;95837.16;6160602;23;20476;-89
2021/05/09 00:08:25;;;;;;;3.90;2.00;;;;;;;12.23;69.43;95831.59;6160864;23;20413;-88
2021/05/09 00:10:52;;;;;;;2.97;2.07;;;;;;;12.23;69.23;95820.78;6161831;23;20456;-88
2021/05/09 00:13:18;;;;;;;1.60;1.50;;;;;;;12.25;69.22;95820.22;6160837;23;20499;-88
2021/05/09 00:15:51;;;;;;;2.43;1.77;;;;;;;12.21;69.45;95819.91;6160261;23;20512;-89
2021/05/09 00:18:18;;;;;;;2.50;1.50;;;;;;;12.17;69.48;95823.03;6161090;23;20476;-88
2021/05/09 00:20:50;;;;;;;2.50;1.90;;;;;;;12.16;69.57;95812.78;6159811;23;20487;-89
2021/05/09 00:23:16;;;;;;;2.30;1.37;;;;;;;12.12;69.67;95802.38;6162564;23;20511;-88
2021/05/09 00:25:42;;;;;;;3.80;2.03;;;;;;;12.08;69.84;95804.78;6160392;23;20591;-89
2021/05/09 00:28:14;;;;;;;2.20;1.70;;;;;;;12.06;70.09;95795.81;6160827;23;20427;-89
2021/05/09 00:30:40;;;;;;;4.53;2.37;;;;;;;12.02;70.51;95798.94;6160094;23;20524;-88
2021/05/09 00:33:06;;;;;;;2.53;2.30;;;;;;;11.98;70.38;95795.19;6160393;23;20393;-88
2021/05/09 00:35:38;;;;;;;2.30;1.73;;;;;;;11.93;70.39;95788.78;6160609;23;20873;-88
2021/05/09 00:38:04;;;;;;;3.57;2.40;;;;;;;11.92;70.96;95792.03;6159527;23;20399;-89
2021/05/09 00:40:30;;;;;;;4.80;2.47;;;;;;;11.88;71.15;95781.63;6161066;23;20407;-88
2021/05/09 00:42:58;;;;;;;3.60;2.53;;;;;;;11.81;71.54;95782.44;6160954;23;20428;-88
2021/05/09 00:45:25;;;;;;;3.53;2.50;;;;;;;11.86;71.41;95783.47;6160581;23;20447;-89
2021/05/09 00:47:52;;;;;;;4.50;3.00;;;;;;;11.88;70.94;95786.31;6160667;23;20743;-88
2021/05/09 00:50:21;;;;;;;3.90;2.87;;;;;;;11.86;71.28;95783.47;6160859;23;20404;-89
2021/05/09 00:52:48;;;;;;;3.20;2.77;;;;;;;11.84;70.81;95775.22;6160001;23;20458;-89
2021/05/09 00:55:16;;;;;;;4.03;2.60;;;;;;;11.81;71.15;95771.63;6161495;23;20495;-89
2021/05/09 00:57:46;;;;;;;4.20;2.03;;;;;;;11.76;71.49;95773.34;6160646;23;20384;-89
2021/05/09 01:00:14;;;;;;;2.27;2.07;;;;;;;11.76;71.35;95764.50;6160068;23;20425;-89
2021/05/09 01:02:43;;;;;;;3.53;2.00;;;;;;;11.76;71.78;95767.94;6159810;23;20451;-89
2021/05/09 01:05:10;;;;;;;3.50;1.90;;;;;;;11.75;71.94;95763.78;6159492;23;20445;-89
2021/05/09 01:07:37;;;;;;;2.50;2.30;;;;;;;11.76;72.06;95772.63;6160135;23;20531;-88
2021/05/09 01:10:13;;;;;;;3.17;1.87;;;;;;;11.77;72.20;95768.66;6159698;23;20887;-88
2021/05/09 01:12:39;;;;;;;3.10;2.20;;;;;;;11.79;71.80;95756.00;6159647;23;20403;-89
2021/05/09 01:15:09;;;;;;;2.93;2.20;;;;;;;11.80;71.91;95760.13;6159707;23;20393;-88
2021/05/09 01:17:35;;;;;;;1.80;1.70;;;;;;;11.77;71.80;95755.84;6160560;23;20484;-88
2021/05/09 01:20:06;;;;;;;3.93;2.43;;;;;;;11.77;71.28;95761.25;6160844;23;20396;-88
2021/05/09 01:22:34;;;;;;;3.30;2.10;;;;;;;11.77;71.71;95752.44;6160360;23;20437;-89
2021/05/09 01:25:00;;;;;;;2.50;1.73;;;;;;;11.74;71.90;95759.69;6160281;23;20446;-88
2021/05/09 01:27:29;;;;;;;1.90;1.70;;;;;;;11.73;71.62;95760.94;6160674;23;20481;-88
2021/05/09 01:29:56;;;;;;;3.10;1.97;;;;;;;11.71;71.77;95749.28;6160385;23;20437;-89
2021/05/09 01:32:22;;;;;;;2.60;2.00;;;;;;;11.70;72.16;95762.06;6160238;23;20422;-88
2021/05/09 01:34:48;;;;;;;7.23;2.70;;;;;;;11.65;72.82;95759.59;6159882;23;20409;-89
2021/05/09 01:37:22;;;;;;;3.53;2.03;;;;;;;11.63;72.50;95749.34;6160018;23;20408;-88
2021/05/09 01:39:48;;;;;;;4.67;2.23;;;;;;;11.60;72.84;95755.88;6160108;23;20704;-88
2021/05/09 01:42:14;;;;;;;5.17;2.23;;;;;;;11.61;72.69;95751.91;6160133;23;20470;-87
2021/05/09 01:44:50;;;;;;;2.50;2.03;;;;;;;11.58;72.77;95755.00;6159252;23;20509;-88
2021/05/09 01:47:17;;;;;;;3.87;2.10;;;;;;;11.56;73.12;95760.28;6160106;23;20432;-88
2021/05/09 01:49:49;;;;;;;3.10;2.40;;;;;;;11.56;72.75;95752.84;6160539;23;20432;-88
2021/05/09 01:52:16;;;;;;;6.23;2.67;;;;;;;11.53;73.13;95753.25;6160865;23;20462;-88
2021/05/09 01:54:52;;;;;;;5.13;2.50;;;;;;;11.50;72.93;95754.38;6161712;23;20420;-88
2021/05/09 01:57:18;;;;;;;3.70;2.50;;;;;;;11.49;72.80;95751.00;6161405;23;20521;-87
2021/05/09 01:59:46;;;;;;;4.43;2.33;;;;;;;11.60;72.93;95747.78;6161335;23;20490;-88
2021/05/09 02:02:12;;;;;;;2.50;2.30;;;;;;;11.51;73.32;95745.00;6162159;23;20444;-88
2021/05/09 02:04:38;;;;;;;5.20;2.50;;;;;;;11.43;73.40;95749.81;6161859;23;20423;-89
2021/05/09 02:07:04;;;;;;;2.77;2.17;;;;;;;11.33;74.29;95751.75;6163004;23;20917;-89
2021/05/09 02:09:34;;;;;;;3.87;2.80;;;;;;;11.32;74.34;95751.03;6161390;23;20444;-89
2021/05/09 02:12:00;;;;;;;3.07;2.60;;;;;;;11.33;74.14;95749.03;6161412;23;20507;-89
2021/05/09 02:14:26;;;;;;;4.17;2.70;;;;;;;11.29;74.19;95746.75;6161492;23;20939;-88
2021/05/09 02:16:58;;;;;;;4.30;2.77;;;;;;;11.29;73.87;95742.06;6161763;23;20439;-89
2021/05/09 02:19:24;;;;;;;5.20;2.63;;;;;;;11.27;74.07;95744.63;6162090;23;20500;-89
2021/05/09 02:21:50;;;;;;;3.53;2.50;;;;;;;11.24;74.50;95737.59;6166421;23;20399;-89
2021/05/09 02:24:16;;;;;;;4.40;2.80;;;;;;;11.19;74.43;95743.97;6167977;23;20426;-88
2021/05/09 02:26:43;;;;;;;4.43;3.20;;;;;;;11.18;74.66;95736.44;6162421;23;20464;-89
2021/05/09 02:29:09;;;;;;;6.73;3.20;;;;;;;11.14;75.00;95731.44;6162180;23;20411;-89
2021/05/09 02:31:35;;;;;;;3.90;2.60;;;;;;;11.15;75.06;95737.56;6162446;23;20462;-89
2021/05/09 02:34:03;;;;;;;4.40;3.13;;;;;;;11.15;75.24;95737.56;6163765;23;20825;-88
2021/05/09 02:36:29;;;;;;;8.20;3.00;;;;;;;11.10;75.53;95731.13;6184133;23;20415;-89
2021/05/09 02:38:55;;;;;;;3.50;2.67;;;;;;;11.09;75.14;95729.69;6167112;23;20419;-89
2021/05/09 02:41:26;;;;;;;11.90;4.70;;;;;;;11.07;75.30;95729.56;6161413;23;20437;-89
2021/05/09 02:43:53;;;;;;;3.90;2.50;;;;;;;11.07;75.96;95731.53;6162466;23;20440;-88
2021/05/09 02:46:19;;;;;;;4.43;3.00;;;;;;;11.09;75.24;95737.06;6160524;23;20456;-90
2021/05/09 02:48:45;;;;;;;4.77;3.60;;;;;;;11.12;75.57;95733.28;6161266;23;20487;-88
2021/05/09 02:51:11;;;;;;;3.83;3.40;;;;;;;11.14;75.32;95734.16;6161122;23;20882;-89
2021/05/09 02:53:38;;;;;;;3.33;1.97;;;;;;;11.17;75.08;95732.31;6161623;23;20493;-89
2021/05/09 02:56:05;;;;;;;3.90;2.70;;;;;;;11.20;75.02;95728.50;6161508;23;20407;-89
2021/05/09 02:58:31;;;;;;;5.67;2.60;;;;;;;11.24;75.01;95732.19;6161390;23;20409;-89
2021/05/09 03:00:58;;;;;;;2.97;2.40;;;;;;;11.25;75.38;95732.91;6161097;23;20722;-88
2021/05/09 03:03:24;;;;;;;3.77;2.80;;;;;;;11.31;75.23;95727.97;6160891;23;20492;-89
2021/05/09 03:05:50;;;;;;;4.60;2.60;;;;;;;11.36;74.50;95734.41;6159696;23;20508;-90
2021/05/09 03:08:16;;;;;;;4.30;2.93;;;;;;;11.32;75.00;95732.13;6160041;23;20384;-90
2021/05/09 03:10:42;;;;;;;6.70;4.33;;;;;;;11.33;74.41;95735.53;6162274;23;20387;-89
2021/05/09 03:13:08;;;;;;;4.07;3.10;;;;;;;11.33;74.62;95736.25;6161899;23;20412;-89
2021/05/09 03:15:39;;;;;;;4.60;2.37;;;;;;;11.35;74.65;95733.69;6162662;23;20431;-88
2021/05/09 03:18:06;;;;;;;2.40;2.20;;;;;;;11.34;75.08;95736.97;6161357;23;20405;-88
2021/05/09 03:20:32;;;;;;;3.10;2.70;;;;;;;11.28;74.66;95735.22;6162311;23;20417;-88
2021/05/09 03:23:04;;;;;;;5.23;2.87;;;;;;;11.27;74.79;95720.31;6174995;23;20441;-89
2021/05/09 03:25:30;;;;;;;4.53;2.50;;;;;;;11.29;75.14;95728.56;6184104;23;20434;-90
2021/05/09 03:27:57;;;;;;;4.73;3.20;;;;;;;11.25;74.64;95730.22;6184084;23;20392;-90
2021/05/09 03:30:26;;;;;;;5.07;3.30;;;;;;;11.25;74.88;95728.25;6166130;23;20429;-88
2021/05/09 03:32:54;;;;;;;3.73;2.63;;;;;;;11.20;75.33;95721.09;6163063;23;20379;-88
2021/05/09 03:35:21;;;;;;;6.63;3.23;;;;;;;11.16;75.62;95720.06;6162267;23;20829;-88
2021/05/09 03:37:49;;;;;;;4.10;2.97;;;;;;;11.15;75.73;95726.75;6166204;23;20473;-87
2021/05/09 03:40:16;;;;;;;4.33;3.20;;;;;;;11.12;75.63;95722.47;6162643;23;20429;-89
2021/05/09 03:42:42;;;;;;;4.00;2.87;;;;;;;11.07;76.47;95720.72;6162109;23;20471;-89
2021/05/09 03:45:13;;;;;;;3.03;2.70;;;;;;;11.04;75.92;95716.44;6162109;23;20451;-89
2021/05/09 03:47:39;;;;;;;7.10;3.57;;;;;;;11.03;76.04;95726.53;6162299;23;20448;-88
2021/05/09 03:50:06;;;;;;;4.40;2.90;;;;;;;11.04;76.62;95711.06;6162334;23;20492;-88
2021/05/09 03:52:36;;;;;;;7.30;2.93;;;;;;;11.04;76.16;95705.66;6161228;23;20420;-88
2021/05/09 03:55:02;;;;;;;6.70;2.70;;;;;;;11.06;76.52;95713.91;6161887;23;20480;-89
2021/05/09 03:57:28;;;;;;;8.13;2.80;;;;;;;11.13;75.87;95713.09;6160669;23;20405;-89
2021/05/09 03:59:58;;;;;;;3.23;2.60;;;;;;;11.21;75.70;95702.94;6161738;23;20418;-87
2021/05/09 04:02:24;;;;;;;4.77;3.23;;;;;;;11.27;75.41;95712.19;6162337;23;20396;-88
2021/05/09 04:04:51;;;;;;;4.93;2.57;;;;;;;11.39;74.81;95712.41;6162271;23;20407;-87
2021/05/09 04:07:24;;;;;;;3.40;2.37;;;;;;;11.53;74.34;95710.03;6161287;23;20478;-87
2021/05/09 04:09:51;;;;;;;2.80;2.37;;;;;;;11.79;73.90;95699.22;6161347;23;20393;-88
2021/05/09 04:12:25;;;;;;;5.30;3.20;;;;;;;12.20;72.98;95702.91;6161208;23;20464;-88
2021/05/09 04:14:51;;;;;;;2.83;2.50;;;;;;;12.54;71.66;95690.41;6161298;23;20393;-88
2021/05/09 04:17:17;;;;;;;2.43;2.23;;;;;;;12.73;70.25;95707.34;6161699;23;20497;-88
2021/05/09 04:19:45;;;;;;;5.40;3.00;;;;;;;12.87;68.66;95699.53;6161142;23;20413;-90
2021/05/09 04:22:11;;;;;;;4.03;2.30;;;;;;;13.26;67.95;95700.91;6160411;23;20511;-88
2021/05/09 04:24:37;;;;;;;4.13;2.50;;;;;;;13.62;66.65;95701.97;6161434;23;20449;-88
2021/05/09 04:27:12;;;;;;;3.30;2.30;;;;;;;13.78;65.81;95708.47;6161914;23;20503;-88
2021/05/09 04:29:38;;;;;;;3.20;2.33;;;;;;;13.82;64.93;95714.13;6160960;23;20389;-89
2021/05/09 04:32:13;;;;;;;12.70;2.43;;;;;;;13.97;64.86;95702.94;6175983;23;20400;-88
2021/05/09 04:34:39;;;;;;;2.37;2.17;;;;;;;14.39;63.81;95708.44;6180364;23;20387;-88
2021/05/09 04:37:05;;;;;;;6.80;2.70;;;;;;;14.61;62.49;95709.16;6180117;23;20424;-88
2021/05/09 04:39:34;;;;;;;3.03;2.17;;;;;;;14.87;61.77;95707.38;6179388;23;20423;-88
2021/05/09 04:42:00;;;;;;;4.80;2.90;;;;;;;15.35;60.25;95706.91;6165631;23;20547;-88
2021/05/09 04:44:27;;;;;;;4.20;2.40;;;;;;;15.30;59.73;95705.97;6164235;23;20530;-88
2021/05/09 04:46:59;;;;;;;3.90;2.77;;;;;;;15.27;59.53;95707.16;6165137;23;20431;-89
2021/05/09 04:49:27;;;;;;;6.07;3.00;;;;;;;15.21;59.15;95698.63;6165812;23;20385;-89
2021/05/09 04:51:59;;;;;;;4.10;3.00;;;;;;;15.03;60.10;95708.38;6169125;23;20460;-88
2021/05/09 04:54:25;;;;;;;6.70;3.23;;;;;;;14.82;60.74;95711.84;6166395;23;20380;-88
2021/05/09 04:56:52;;;;;;;3.57;2.40;;;;;;;14.50;61.72;95696.22;6168347;23;20429;-88
2021/05/09 04:59:23;;;;;;;3.90;3.00;;;;;;;14.40;62.06;95701.00;6181145;23;20420;-89
2021/05/09 05:01:50;;;;;;;3.27;2.77;;;;;;;14.28;63.06;95706.31;6169321;23;20397;-88
2021/05/09 05:04:16;;;;;;;3.60;2.60;;;;;;;14.34;62.72;95697.91;6161634;23;20480;-88
2021/05/09 05:06:45;;;;;;;3.80;3.10;;;;;;;14.24;63.33;95697.22;6162390;23;20425;-88
2021/05/09 05:09:11;;;;;;;3.73;2.43;;;;;;;14.13;63.75;95698.56;6162172;23;20401;-88
2021/05/09 05:11:37;;;;;;;4.33;3.33;;;;;;;14.09;64.00;95692.19;6161907;23;20444;-88
2021/05/09 05:14:12;;;;;;;6.13;2.80;;;;;;;14.02;63.75;95701.19;6161679;23;20451;-89
2021/05/09 05:16:38;;;;;;;4.47;3.40;;;;;;;13.95;64.42;95703.53;6161477;23;20492;-89
2021/05/09 05:19:12;;;;;;;4.43;3.10;;;;;;;13.84;64.38;95704.16;6162005;23;20444;-88
2021/05/09 05:21:38;;;;;;;6.43;3.10;;;;;;;13.76;64.61;95702.88;6161989;23;20373;-88
2021/05/09 05:24:05;;;;;;;4.07;3.07;;;;;;;13.69;65.21;95706.50;6162153;23;20409;-88
2021/05/09 05:26:33;;;;;;;6.97;3.57;;;;;;;13.71;65.03;95710.06;6160736;23;20453;-88
2021/05/09 05:28:59;;;;;;;5.67;3.33;;;;;;;13.70;65.01;95710.63;6161456;23;20949;-88
2021/05/09 05:31:25;;;;;;;4.73;3.13;;;;;;;13.65;65.38;95715.06;6161061;23;20484;-89
2021/05/09 05:33:59;;;;;;;3.77;3.40;;;;;;;13.78;65.63;95708.47;6161258;23;20478;-88
2021/05/09 05:36:26;;;;;;;6.90;3.83;;;;;;;14.36;64.46;95714.31;6160998;23;20429;-88
2021/05/09 05:38:58;;;;;;;7.33;4.20;;;;;;;14.96;61.97;95709.31;6162553;23;20447;-87
2021/05/09 05:41:25;;;;;;;4.20;3.00;;;;;;;15.32;60.42;95721.69;6164150;23;20405;-88
2021/05/09 05:43:51;;;;;;;8.10;3.53;;;;;;;15.94;59.67;95717.28;6162989;23;20408;-88
2021/05/09 05:46:20;;;;;;;7.50;3.33;;;;;;;16.76;56.82;95720.63;6160952;23;20543;-88
2021/05/09 05:48:46;;;;;;;4.37;3.30;;;;;;;17.51;54.35;95711.06;6161368;23;20433;-88
2021/05/09 05:51:12;;;;;;;5.23;3.00;;;;;;;18.08;52.90;95717.41;6160308;23;20409;-88
2021/05/09 05:53:44;;;;;;;5.30;3.20;;;;;;;18.60;50.96;95719.34;6159195;23;20389;-88
2021/05/09 05:56:10;;;;;;;3.60;3.30;;;;;;;19.33;49.81;95723.44;6158748;23;20425;-89
2021/05/09 05:58:36;;;;;;;12.67;3.93;;;;;;;19.91;48.00;95728.13;6158578;23;20436;-88
2021/05/09 06:01:08;;;;;;;3.13;2.40;;;;;;;20.06;47.57;95724.69;6159601;23;20443;-88
2021/05/09 06:03:34;;;;;;;4.10;2.97;;;;;;;20.68;46.16;95729.34;6158967;23;20466;-88
2021/05/09 06:06:00;;;;;;;5.90;2.77;;;;;;;21.00;45.01;95729.94;6159381;23;20564;-88
2021/05/09 06:08:28;;;;;;;3.30;2.80;;;;;;;21.35;44.41;95732.72;6159412;23;20424;-88
2021/05/09 06:10:55;;;;;;;3.63;3.20;;;;;;;21.49;44.29;95723.63;6159590;23;20454;-89
2021/05/09 06:13:21;;;;;;;3.30;2.37;;;;;;;21.52;44.11;95731.28;6160208;23;20476;-89
2021/05/09 06:15:52;;;;;;;3.87;2.80;;;;;;;21.78;43.19;95739.78;6159682;23;21014;-89
2021/05/09 06:18:18;;;;;;;6.30;2.90;;;;;;;22.23;42.41;95731.84;6160038;23;20400;-88
2021/05/09 06:20:44;;;;;;;2.23;2.03;;;;;;;22.35;41.86;95728.78;6159399;23;20468;-89
2021/05/09 06:23:10;;;;;;;5.33;2.77;;;;;;;22.42;41.48;95733.88;6159444;23;20495;-88
2021/05/09 06:25:38;;;;;;;3.67;2.33;;;;;;;22.52;41.26;95736.25;6159505;23;20448;-89
2021/05/09 06:28:06;;;;;;;4.30;2.67;;;;;;;22.85;40.25;95730.50;6160052;23;21026;-88
2021/05/09 06:30:32;;;;;;;3.80;2.63;;;;;;;22.93;40.06;95738.28;6159839;23;20985;-89
2021/05/09 06:32:58;;;;;;;2.63;2.33;;;;;;;23.52;39.29;95729.84;6160749;23;20485;-89
2021/05/09 06:35:24;;;;;;;5.13;2.50;;;;;;;23.72;39.33;95732.47;6160510;23;20984;-87
2021/05/09 06:37:52;;;;;;;2.47;2.00;;;;;;;23.62;39.08;95735.63;6163211;23;20577;-88
2021/05/09 06:40:21;;;;;;;3.17;2.10;;;;;;;23.40;40.15;95738.44;6163370;23;20436;-89
2021/05/09 06:42:54;;;;;;;3.27;2.20;;;;;;;23.89;38.96;95724.03;6162328;23;20408;-90
2021/05/09 06:45:30;;;;;;;2.83;2.23;;;;;;;24.00;38.93;95733.28;6163918;23;20507;-89
2021/05/09 06:47:58;;;;;;;2.27;2.00;;;;;;;24.11;39.16;95731.50;6161846;23;20413;-89
2021/05/09 06:50:27;;;;;;;3.43;2.10;;;;;;;24.24;38.60;95736.75;6162788;23;20405;-89
2021/05/09 06:52:54;;;;;;;4.53;2.33;;;;;;;24.70;37.66;95736.53;6162169;23;20726;-89
2021/05/09 06:55:20;;;;;;;5.00;2.50;;;;;;;24.73;37.79;95735.22;6163287;23;20487;-89
2021/05/09 06:57:48;;;;;;;2.57;2.10;;;;;;;24.46;38.41;95742.81;6163221;23;20459;-88
2021/05/09 07:00:18;;;;;;;3.60;1.80;;;;;;;24.80;37.70;95737.50;6163124;23;20759;-89
2021/05/09 07:02:45;;;;;;;7.07;1.97;;;;;;;24.97;37.32;95739.31;6162696;23;20480;-89
2021/05/09 07:05:13;;;;;;;1.67;1.57;;;;;;;25.37;36.24;95742.31;6162497;23;20487;-89
2021/05/09 07:07:46;;;;;;;2.30;1.93;;;;;;;25.15;36.74;95739.06;6161550;23;20439;-89
2021/05/09 07:10:14;;;;;;;3.90;2.20;;;;;;;25.63;35.50;95736.69;6161656;23;20408;-89
2021/05/09 07:12:40;;;;;;;3.63;1.90;;;;;;;25.54;35.64;95735.13;6161712;23;20428;-89
2021/05/09 07:15:09;;;;;;;3.23;2.30;;;;;;;25.58;35.13;95732.47;6162602;23;20480;-90
2021/05/09 07:17:39;;;;;;;4.70;1.70;;;;;;;25.53;35.02;95733.72;6168761;23;20453;-90
2021/05/09 07:20:08;;;;;;;6.30;1.83;;;;;;;25.60;35.31;95734.56;6163013;23;20409;-91
2021/05/09 07:22:40;;;;;;;2.20;1.60;;;;;;;25.37;35.22;95736.78;6162627;23;20742;-91
2021/05/09 07:25:07;;;;;;;1.60;1.50;;;;;;;25.79;35.33;95733.59;6162809;23;20436;-92
2021/05/09 07:27:33;;;;;;;1.80;1.70;;;;;;;25.79;35.03;95739.81;6162679;23;20431;-92
2021/05/09 07:30:01;;;;;;;2.60;1.87;;;;;;;25.92;35.43;95735.25;6163851;23;20393;-92
2021/05/09 07:32:27;;;;;;;2.00;1.80;;;;;;;26.14;34.62;95734.97;6163247;23;20484;-91
2021/05/09 07:34:53;;;;;;;1.83;1.63;;;;;;;26.65;34.01;95733.88;6161443;23;20396;-92
2021/05/09 07:37:29;;;;;;;2.23;1.40;;;;;;;26.63;33.55;95736.63;6164738;23;20495;-91
2021/05/09 07:39:55;;;;;;;1.43;1.33;;;;;;;26.34;33.60;95730.56;6163668;23;20439;-91
2021/05/09 07:42:21;;;;;;;2.43;1.17;;;;;;;26.63;33.34;95731.09;6163933;23;20428;-91
2021/05/09 07:44:47;;;;;;;3.50;1.67;;;;;;;26.48;33.59;95733.59;6163455;23;20476;-89
2021/05/09 07:47:14;;;;;;;1.43;1.33;;;;;;;26.69;33.55;95722.88;6162384;23;20437;-90
2021/05/09 07:49:40;;;;;;;1.30;1.20;;;;;;;26.94;32.64;95722.63;6162006;23;20554;-89
2021/05/09 07:52:07;;;;;;;1.70;1.60;;;;;;;26.46;33.64;95719.03;6161186;23;20806;-89
2021/05/09 07:54:34;;;;;;;1.77;1.50;;;;;;;26.84;33.26;95710.72;6163061;23;20735;-90
2021/05/09 07:57:00;;;;;;;4.93;1.50;;;;;;;26.40;33.71;95710.63;6163441;23;20503;-89
2021/05/09 07:59:26;;;;;;;2.93;1.67;;;;;;;26.41;34.27;95714.75;6162964;23;20515;-88
2021/05/09 08:01:58;;;;;;;3.20;2.10;;;;;;;26.00;34.87;95707.75;6161346;23;20520;-89
2021/05/09 08:04:24;;;;;;;4.90;1.67;;;;;;;26.24;34.62;95702.72;6161567;23;20421;-89
2021/05/09 08:06:50;;;;;;;3.10;1.63;;;;;;;26.46;34.83;95714.19;6162412;23;20417;-89
2021/05/09 08:09:19;;;;;;;1.87;1.67;;;;;;;26.94;33.47;95700.47;6162412;23;20868;-88
2021/05/09 08:11:45;;;;;;;1.40;1.20;;;;;;;27.06;32.99;95702.75;6160887;23;20400;-89
2021/05/09 08:14:12;;;;;;;1.90;1.70;;;;;;;26.81;33.54;95692.66;6161878;23;20436;-89
2021/05/09 08:16:44;;;;;;;1.87;1.37;;;;;;;26.61;33.91;95696.47;6162057;23;20436;-88
2021/05/09 08:19:12;;;;;;;1.97;1.53;;;;;;;26.15;34.71;95690.06;6162469;23;20509;-89
2021/05/09 08:21:48;;;;;;;2.17;1.73;;;;;;;26.53;34.31;95693.53;6163282;23;20405;-88
2021/05/09 08:24:24;;;;;;;;;;;;;;;;;;;;;
2021/05/09 08:26:52;;;;;;;3.87;1.87;;;;;;;26.71;33.91;95682.09;6162060;23;20495;-89
2021/05/09 08:29:29;;;;;;;2.53;1.83;;;;;;;27.06;32.98;95686.13;6160173;23;20404;-89
2021/05/09 08:31:55;;;;;;;2.17;1.73;;;;;;;27.31;33.24;95690.66;6160798;23;20381;-89
2021/05/09 08:34:21;;;;;;;1.33;1.23;;;;;;;27.51;32.57;95681.94;6160465;23;20401;-88
2021/05/09 08:36:50;;;;;;;1.80;1.50;;;;;;;27.46;31.88;95686.75;6160465;23;20436;-88
2021/05/09 08:39:16;;;;;;;4.53;1.77;;;;;;;27.47;32.45;95684.66;6160997;23;20408;-88
2021/05/09 08:41:43;;;;;;;2.40;1.63;;;;;;;27.37;32.43;95681.72;6161999;23;20457;-89
2021/05/09 08:44:13;;;;;;;2.70;1.50;;;;;;;27.50;31.91;95683.31;6160485;23;20408;-88
2021/05/09 08:46:39;;;;;;;2.87;1.63;;;;;;;27.32;32.20;95678.19;6160140;23;20475;-89
2021/05/09 08:49:05;;;;;;;3.87;1.80;;;;;;;27.17;32.87;95684.91;6160278;23;20488;-87
2021/05/09 08:51:35;;;;;;;5.00;1.90;;;;;;;27.10;33.30;95680.63;6162478;23;20507;-89
2021/05/09 08:54:01;;;;;;;2.63;1.93;;;;;;;27.03;33.32;95674.28;6160743;23;20795;-89
2021/05/09 08:56:27;;;;;;;3.27;1.70;;;;;;;26.80;34.10;95678.09;6161753;23;20425;-89
2021/05/09 08:58:58;;;;;;;1.50;1.40;;;;;;;26.58;34.70;95681.19;6160274;23;20437;-89
2021/05/09 09:01:28;;;;;;;3.23;1.83;;;;;;;26.62;33.73;95675.00;6160776;23;20400;-88
2021/05/09 09:04:00;;;;;;;1.50;1.40;;;;;;;26.41;33.90;95678.78;6161590;23;20404;-89
2021/05/09 09:06:43;;;;;;;1.60;1.20;;;;;;;26.22;34.08;95674.31;6162307;23;20453;-89
2021/05/09 09:09:26;;;;;;;1.77;1.40;;;;;;;26.24;33.53;95663.28;6162330;23;20805;-89
2021/05/09 09:11:54;;;;;;;2.30;1.77;;;;;;;26.14;33.42;95666.53;6163016;23;20408;-89
2021/05/09 09:14:27;;;;;;;1.70;1.30;;;;;;;26.20;34.00;95660.44;6161586;23;20417;-89
2021/05/09 09:17:13;;;;;;;1.77;1.37;;;;;;;26.37;33.84;95651.75;6160651;23;20981;-89
2021/05/09 09:20:14;;;;;;;2.70;1.20;;;;;;;26.44;34.34;95647.72;6170357;23;20428;-90
2021/05/09 09:23:09;;;;;;;2.70;1.50;;;;;;;26.27;33.91;95648.81;6182128;23;20492;-89
2021/05/09 09:25:38;;;;;;;1.80;1.43;;;;;;;26.25;35.42;95645.31;6114173;23;20449;-89
2021/05/09 09:28:12;;;;;;;1.67;1.57;;;;;;;26.11;34.20;95645.72;6163228;23;20401;-88
2021/05/09 09:30:52;;;;;;;1.67;1.47;;;;;;;25.86;35.74;95643.88;6163562;23;20439;-87
2021/05/09 09:33:21;;;;;;;1.67;1.47;;;;;;;25.84;36.60;95635.53;6162688;23;20389;-87
2021/05/09 09:35:57;;;;;;;3.70;1.63;;;;;;;25.90;36.86;95624.59;6161104;23;20432;-88
2021/05/09 09:38:34;;;;;;;4.70;1.67;;;;;;;26.02;36.04;95619.28;6160132;23;20685;-88
2021/05/09 09:41:16;;;;;;;3.43;1.70;;;;;;;26.06;36.04;95620.03;6160053;23;20384;-87
2021/05/09 09:43:45;;;;;;;4.07;1.90;;;;;;;26.17;36.30;95629.25;6161995;23;20401;-88
2021/05/09 09:46:27;;;;;;;3.83;2.03;;;;;;;26.47;34.69;95615.25;6167598;23;20500;-89
2021/05/09 09:49:00;;;;;;;4.07;1.47;;;;;;;26.55;34.72;95620.91;6157738;23;20408;-89
2021/05/09 09:51:28;;;;;;;4.87;1.47;;;;;;;26.82;33.17;95613.72;6162869;23;20407;-89
2021/05/09 09:53:56;;;;;;;2.70;1.63;;;;;;;26.92;32.55;95597.97;6161587;23;20472;-88
2021/05/09 09:56:25;;;;;;;2.13;1.80;;;;;;;27.07;32.68;95604.41;6162696;23;20413;-89
2021/05/09 09:58:53;;;;;;;3.00;1.37;;;;;;;26.94;30.57;95611.84;6162873;23;20393;-88
2021/05/09 10:01:30;;;;;;;2.60;1.27;;;;;;;27.07;30.74;95602.34;6162364;23;20389;-88
2021/05/09 10:04:01;;;;;;;1.60;1.50;;;;;;;27.35;30.47;95598.53;6161139;23;20381;-88
2021/05/09 10:06:28;;;;;;;1.23;1.13;;;;;;;27.21;29.78;95590.03;6166835;23;20474;-89
2021/05/09 10:08:56;;;;;;;2.00;1.40;;;;;;;27.30;29.86;95592.25;6163378;23;20409;-89
2021/05/09 10:11:29;;;;;;;5.53;5.03;;;;;;;27.35;29.88;95593.00;6162313;23;20400;-91
2021/05/09 10:13:56;;;;;;;1.33;1.23;;;;;;;27.50;30.24;95591.84;6162876;23;20827;-88
2021/05/09 10:16:34;;;;;;;2.87;1.27;;;;;;;27.34;31.26;95581.22;6163170;23;20425;-89
2021/05/09 10:19:03;;;;;;;1.87;1.30;;;;;;;27.29;29.97;95585.31;6164497;23;20465;-88
2021/05/09 10:21:32;;;;;;;4.03;1.60;;;;;;;27.24;28.79;95575.56;6163374;23;20451;-89
2021/05/09 10:24:12;;;;;;;2.20;1.50;;;;;;;27.19;30.43;95576.84;6163179;23;20433;-91
2021/05/09 10:26:53;;;;;;;2.90;1.30;;;;;;;27.51;30.08;95576.59;6163030;23;20448;-88
2021/05/09 10:29:59;;;;;;;3.80;1.33;;;;;;;27.71;30.03;95574.06;6163848;23;20389;-88
2021/05/09 10:32:49;;;;;;;2.60;1.77;;;;;;;28.02;30.97;95570.22;6163341;23;20384;-92
2021/05/09 10:35:18;;;;;;;1.40;1.30;;;;;;;28.21;29.24;95573.16;6165758;23;20764;-92
2021/05/09 10:38:07;;;;;;;3.20;1.93;;;;;;;28.01;29.33;95571.56;6164658;23;20397;-91
2021/05/09 10:40:42;;;;;;;3.37;1.80;;;;;;;28.05;29.82;95573.72;6164788;23;20452;-87
2021/05/09 10:43:30;;;;;;;5.67;2.47;;;;;;;28.30;28.85;95572.56;6164844;23;20389;-92
2021/05/09 10:46:02;;;;;;;4.00;1.90;;;;;;;28.42;27.65;95575.44;6170208;23;20452;-91
2021/05/09 10:48:33;;;;;;;2.47;1.90;;;;;;;28.56;27.46;95572.06;6164934;23;20390;-88
2021/05/09 10:51:25;;;;;;;2.30;1.30;;;;;;;28.57;26.39;95579.00;6162228;23;20419;-88
2021/05/09 10:53:53;;;;;;;1.50;1.20;;;;;;;28.60;28.10;95556.13;6147453;23;20424;-89
2021/05/09 10:56:33;;;;;;;1.30;1.20;;;;;;;28.44;27.95;95572.69;6163083;23;20435;-88
2021/05/09 10:58:59;;;;;;;2.60;1.30;;;;;;;28.58;27.35;95567.22;6163905;23;20447;-88
2021/05/09 11:01:33;;;;;;;2.13;1.50;;;;;;;28.78;27.27;95568.78;6165118;23;20427;-88
2021/05/09 11:04:01;;;;;;;2.03;1.33;;;;;;;28.85;26.83;95562.56;6164996;23;20463;-89
2021/05/09 11:06:42;;;;;;;2.27;1.50;;;;;;;28.88;26.65;95549.41;6163318;23;20464;-88
2021/05/09 11:09:14;;;;;;;1.47;1.20;;;;;;;29.01;27.27;95559.88;6162600;23;20389;-89
2021/05/09 11:12:03;;;;;;;1.30;1.20;;;;;;;29.12;26.63;95555.78;6162482;23;20373;-89
2021/05/09 11:14:37;;;;;;;1.40;1.30;;;;;;;29.11;26.81;95550.91;6162484;23;20404;-89
2021/05/09 11:17:18;;;;;;;1.83;1.50;;;;;;;29.13;26.98;95554.38;6162162;23;20408;-88
2021/05/09 11:19:57;;;;;;;3.20;1.40;;;;;;;29.12;25.69;95558.56;6159925;23;20435;-88
2021/05/09 11:22:27;;;;;;;1.93;1.47;;;;;;;29.22;26.60;95544.03;6162593;23;20843;-88
2021/05/09 11:25:00;;;;;;;1.90;1.30;;;;;;;29.38;26.89;95552.47;6163669;23;20884;-88
2021/05/09 11:27:28;;;;;;;3.43;1.47;;;;;;;29.49;25.54;95542.75;6161691;23;20429;-88
2021/05/09 11:30:03;;;;;;;4.17;1.30;;;;;;;29.55;25.72;95533.72;6163041;23;20425;-87
2021/05/09 11:32:32;;;;;;;2.20;1.53;;;;;;;29.44;25.32;95538.56;6162331;23;20384;-89
2021/05/09 11:35:06;;;;;;;2.63;1.43;;;;;;;29.38;25.46;95530.22;6163322;23;20412;-87
2021/05/09 11:37:36;;;;;;;5.07;1.50;;;;;;;29.32;25.29;95530.16;6162020;23;20400;-86
2021/05/09 11:40:05;;;;;;;3.03;1.40;;;;;;;29.35;24.82;95526.03;6162343;23;20393;-88
2021/05/09 11:42:31;;;;;;;3.27;1.07;;;;;;;29.34;25.41;95518.38;6171080;23;20416;-87
2021/05/09 11:44:58;;;;;;;2.20;1.10;;;;;;;29.47;25.67;95522.59;6177217;23;20443;-89